sensor_id;sensor_type;location;lat;lon;timestamp;P1;durP1;ratioP1;P2;durP2;ratioP2
37895;SDS011;23733;53.254;10.430;2023-08-20T00:00:27;7.37;;;3.60;;
37895;SDS011;23733;53.254;10.430;2023-08-20T00:03:03;8.77;;;3.63;;
37895;SDS011;23733;53.254;10.430;2023-08-20T00:05:30;9.33;;;4.13;;
37895;SDS011;23733;53.254;10.430;2023-08-20T00:07:57;8.17;;;3.93;;
37895;SDS011;23733;53.254;10.430;2023-08-20T00:10:23;9.43;;;3.90;;
37895;SDS011;23733;53.254;10.430;2023-08-20T00:12:49;6.50;;;3.60;;
37895;SDS011;23733;53.254;10.430;2023-08-20T00:15:16;12.00;;;3.87;;
37895;SDS011;23733;53.254;10.430;2023-08-20T00:17:44;10.10;;;3.53;;
37895;SDS011;23733;53.254;10.430;2023-08-20T00:20:11;9.07;;;3.87;;
37895;SDS011;23733;53.254;10.430;2023-08-20T00:22:41;7.40;;;3.93;;
37895;SDS011;23733;53.254;10.430;2023-08-20T00:25:09;8.70;;;3.80;;
37895;SDS011;23733;53.254;10.430;2023-08-20T00:27:35;7.53;;;3.57;;
37895;SDS011;23733;53.254;10.430;2023-08-20T00:30:01;9.23;;;4.00;;
37895;SDS011;23733;53.254;10.430;2023-08-20T00:32:29;10.03;;;3.83;;
37895;SDS011;23733;53.254;10.430;2023-08-20T00:34:55;10.70;;;4.43;;
37895;SDS011;23733;53.254;10.430;2023-08-20T00:37:21;12.10;;;4.30;;
37895;SDS011;23733;53.254;10.430;2023-08-20T00:39:48;6.90;;;3.83;;
37895;SDS011;23733;53.254;10.430;2023-08-20T00:42:14;11.83;;;4.43;;
37895;SDS011;23733;53.254;10.430;2023-08-20T00:44:41;9.83;;;4.43;;
37895;SDS011;23733;53.254;10.430;2023-08-20T00:47:10;12.90;;;4.10;;
37895;SDS011;23733;53.254;10.430;2023-08-20T00:49:36;11.50;;;4.53;;
37895;SDS011;23733;53.254;10.430;2023-08-20T00:52:03;9.47;;;3.70;;
37895;SDS011;23733;53.254;10.430;2023-08-20T00:54:30;10.80;;;3.63;;
37895;SDS011;23733;53.254;10.430;2023-08-20T00:56:58;6.43;;;3.83;;
37895;SDS011;23733;53.254;10.430;2023-08-20T00:59:26;6.87;;;3.33;;
37895;SDS011;23733;53.254;10.430;2023-08-20T01:01:54;6.43;;;3.70;;
37895;SDS011;23733;53.254;10.430;2023-08-20T01:04:20;7.53;;;4.13;;
37895;SDS011;23733;53.254;10.430;2023-08-20T01:09:34;6.40;;;4.20;;
37895;SDS011;23733;53.254;10.430;2023-08-20T01:12:05;9.77;;;4.07;;
37895;SDS011;23733;53.254;10.430;2023-08-20T01:14:32;9.93;;;4.10;;
37895;SDS011;23733;53.254;10.430;2023-08-20T01:16:58;6.97;;;3.70;;
37895;SDS011;23733;53.254;10.430;2023-08-20T01:19:24;8.70;;;3.87;;
37895;SDS011;23733;53.254;10.430;2023-08-20T01:27:56;7.00;;;3.60;;
37895;SDS011;23733;53.254;10.430;2023-08-20T01:30:44;9.30;;;4.23;;
37895;SDS011;23733;53.254;10.430;2023-08-20T01:33:11;15.53;;;4.43;;
37895;SDS011;23733;53.254;10.430;2023-08-20T01:35:40;10.67;;;4.83;;
37895;SDS011;23733;53.254;10.430;2023-08-20T01:38:06;11.07;;;4.20;;
37895;SDS011;23733;53.254;10.430;2023-08-20T01:40:33;7.90;;;4.10;;
37895;SDS011;23733;53.254;10.430;2023-08-20T01:42:59;8.90;;;4.00;;
37895;SDS011;23733;53.254;10.430;2023-08-20T01:45:25;7.60;;;3.60;;
37895;SDS011;23733;53.254;10.430;2023-08-20T01:47:51;6.30;;;3.50;;
37895;SDS011;23733;53.254;10.430;2023-08-20T01:50:17;6.47;;;3.60;;
37895;SDS011;23733;53.254;10.430;2023-08-20T01:52:44;8.00;;;4.10;;
37895;SDS011;23733;53.254;10.430;2023-08-20T01:55:11;6.83;;;3.57;;
37895;SDS011;23733;53.254;10.430;2023-08-20T01:57:37;6.47;;;3.40;;
37895;SDS011;23733;53.254;10.430;2023-08-20T02:00:03;8.30;;;3.70;;
37895;SDS011;23733;53.254;10.430;2023-08-20T02:02:33;7.23;;;3.70;;
37895;SDS011;23733;53.254;10.430;2023-08-20T02:05:00;6.90;;;3.47;;
37895;SDS011;23733;53.254;10.430;2023-08-20T02:07:26;9.37;;;3.90;;
37895;SDS011;23733;53.254;10.430;2023-08-20T02:09:52;9.03;;;3.60;;
37895;SDS011;23733;53.254;10.430;2023-08-20T02:12:18;9.37;;;3.63;;
37895;SDS011;23733;53.254;10.430;2023-08-20T02:14:44;7.03;;;3.53;;
37895;SDS011;23733;53.254;10.430;2023-08-20T02:17:10;7.00;;;3.97;;
37895;SDS011;23733;53.254;10.430;2023-08-20T02:19:37;9.63;;;4.23;;
37895;SDS011;23733;53.254;10.430;2023-08-20T02:22:04;8.10;;;3.80;;
37895;SDS011;23733;53.254;10.430;2023-08-20T02:24:30;9.87;;;3.80;;
37895;SDS011;23733;53.254;10.430;2023-08-20T02:26:56;7.63;;;3.70;;
37895;SDS011;23733;53.254;10.430;2023-08-20T02:29:22;9.07;;;3.93;;
37895;SDS011;23733;53.254;10.430;2023-08-20T02:31:48;8.50;;;4.00;;
37895;SDS011;23733;53.254;10.430;2023-08-20T02:34:14;10.97;;;4.07;;
37895;SDS011;23733;53.254;10.430;2023-08-20T02:36:40;7.03;;;4.07;;
37895;SDS011;23733;53.254;10.430;2023-08-20T02:39:06;9.43;;;4.40;;
37895;SDS011;23733;53.254;10.430;2023-08-20T02:41:36;7.43;;;3.67;;
37895;SDS011;23733;53.254;10.430;2023-08-20T02:44:02;6.10;;;3.47;;
37895;SDS011;23733;53.254;10.430;2023-08-20T02:46:28;9.37;;;4.03;;
37895;SDS011;23733;53.254;10.430;2023-08-20T02:48:55;7.73;;;3.53;;
37895;SDS011;23733;53.254;10.430;2023-08-20T02:51:21;6.97;;;3.70;;
37895;SDS011;23733;53.254;10.430;2023-08-20T02:53:48;7.67;;;4.20;;
37895;SDS011;23733;53.254;10.430;2023-08-20T02:56:14;9.17;;;3.87;;
37895;SDS011;23733;53.254;10.430;2023-08-20T02:58:40;12.30;;;4.50;;
37895;SDS011;23733;53.254;10.430;2023-08-20T03:01:06;8.50;;;3.80;;
37895;SDS011;23733;53.254;10.430;2023-08-20T03:03:32;9.30;;;3.80;;
37895;SDS011;23733;53.254;10.430;2023-08-20T03:05:58;8.63;;;4.07;;
37895;SDS011;23733;53.254;10.430;2023-08-20T03:08:24;5.37;;;3.10;;
37895;SDS011;23733;53.254;10.430;2023-08-20T03:10:51;8.23;;;3.93;;
37895;SDS011;23733;53.254;10.430;2023-08-20T03:13:17;10.00;;;4.10;;
37895;SDS011;23733;53.254;10.430;2023-08-20T03:15:44;10.63;;;3.70;;
37895;SDS011;23733;53.254;10.430;2023-08-20T03:18:10;7.53;;;3.50;;
37895;SDS011;23733;53.254;10.430;2023-08-20T03:20:36;8.17;;;3.80;;
37895;SDS011;23733;53.254;10.430;2023-08-20T03:23:02;9.83;;;3.73;;
37895;SDS011;23733;53.254;10.430;2023-08-20T03:25:28;8.63;;;4.10;;
37895;SDS011;23733;53.254;10.430;2023-08-20T03:27:54;8.00;;;3.63;;
37895;SDS011;23733;53.254;10.430;2023-08-20T03:30:21;10.43;;;4.30;;
37895;SDS011;23733;53.254;10.430;2023-08-20T03:32:47;7.53;;;3.27;;
37895;SDS011;23733;53.254;10.430;2023-08-20T03:35:13;7.03;;;4.13;;
37895;SDS011;23733;53.254;10.430;2023-08-20T03:37:39;5.97;;;3.53;;
37895;SDS011;23733;53.254;10.430;2023-08-20T03:40:05;9.13;;;3.50;;
37895;SDS011;23733;53.254;10.430;2023-08-20T03:42:31;6.87;;;3.33;;
37895;SDS011;23733;53.254;10.430;2023-08-20T03:44:57;9.00;;;4.03;;
37895;SDS011;23733;53.254;10.430;2023-08-20T03:47:23;5.10;;;3.17;;
37895;SDS011;23733;53.254;10.430;2023-08-20T03:49:49;6.90;;;3.90;;
37895;SDS011;23733;53.254;10.430;2023-08-20T03:52:15;10.07;;;3.40;;
37895;SDS011;23733;53.254;10.430;2023-08-20T03:54:41;9.13;;;3.20;;
37895;SDS011;23733;53.254;10.430;2023-08-20T03:57:07;6.43;;;3.30;;
37895;SDS011;23733;53.254;10.430;2023-08-20T03:59:33;5.53;;;3.33;;
37895;SDS011;23733;53.254;10.430;2023-08-20T04:01:59;6.33;;;3.63;;
37895;SDS011;23733;53.254;10.430;2023-08-20T04:04:25;8.33;;;3.87;;
37895;SDS011;23733;53.254;10.430;2023-08-20T04:06:52;5.67;;;3.30;;
37895;SDS011;23733;53.254;10.430;2023-08-20T04:09:18;4.43;;;2.80;;
37895;SDS011;23733;53.254;10.430;2023-08-20T04:11:44;8.70;;;4.00;;
37895;SDS011;23733;53.254;10.430;2023-08-20T04:14:10;8.00;;;3.63;;
37895;SDS011;23733;53.254;10.430;2023-08-20T04:16:36;8.17;;;4.00;;
37895;SDS011;23733;53.254;10.430;2023-08-20T04:19:02;8.57;;;3.30;;
37895;SDS011;23733;53.254;10.430;2023-08-20T04:21:28;8.87;;;3.70;;
37895;SDS011;23733;53.254;10.430;2023-08-20T04:23:54;7.53;;;3.60;;
37895;SDS011;23733;53.254;10.430;2023-08-20T04:26:20;8.93;;;3.70;;
37895;SDS011;23733;53.254;10.430;2023-08-20T04:28:46;8.10;;;4.10;;
37895;SDS011;23733;53.254;10.430;2023-08-20T04:31:13;8.70;;;4.13;;
37895;SDS011;23733;53.254;10.430;2023-08-20T04:33:39;7.40;;;4.03;;
37895;SDS011;23733;53.254;10.430;2023-08-20T04:36:05;7.93;;;4.30;;
37895;SDS011;23733;53.254;10.430;2023-08-20T04:38:32;7.83;;;4.13;;
37895;SDS011;23733;53.254;10.430;2023-08-20T04:40:58;7.77;;;3.73;;
37895;SDS011;23733;53.254;10.430;2023-08-20T04:43:24;11.47;;;4.90;;
37895;SDS011;23733;53.254;10.430;2023-08-20T04:45:50;5.77;;;3.80;;
37895;SDS011;23733;53.254;10.430;2023-08-20T04:48:17;10.07;;;4.20;;
37895;SDS011;23733;53.254;10.430;2023-08-20T04:50:43;8.67;;;4.30;;
37895;SDS011;23733;53.254;10.430;2023-08-20T04:53:09;8.87;;;3.97;;
37895;SDS011;23733;53.254;10.430;2023-08-20T04:55:36;9.67;;;4.80;;
37895;SDS011;23733;53.254;10.430;2023-08-20T04:58:02;8.70;;;4.60;;
37895;SDS011;23733;53.254;10.430;2023-08-20T05:00:28;9.20;;;5.07;;
37895;SDS011;23733;53.254;10.430;2023-08-20T05:02:55;8.43;;;4.50;;
37895;SDS011;23733;53.254;10.430;2023-08-20T05:05:21;8.73;;;4.93;;
37895;SDS011;23733;53.254;10.430;2023-08-20T05:07:47;12.70;;;5.33;;
37895;SDS011;23733;53.254;10.430;2023-08-20T05:10:14;9.53;;;5.00;;
37895;SDS011;23733;53.254;10.430;2023-08-20T05:12:40;12.17;;;5.33;;
37895;SDS011;23733;53.254;10.430;2023-08-20T05:15:06;10.73;;;5.77;;
37895;SDS011;23733;53.254;10.430;2023-08-20T05:17:33;8.47;;;5.07;;
37895;SDS011;23733;53.254;10.430;2023-08-20T05:19:59;9.40;;;4.83;;
37895;SDS011;23733;53.254;10.430;2023-08-20T05:22:25;10.80;;;5.87;;
37895;SDS011;23733;53.254;10.430;2023-08-20T05:24:52;11.77;;;6.07;;
37895;SDS011;23733;53.254;10.430;2023-08-20T05:27:18;9.87;;;5.97;;
37895;SDS011;23733;53.254;10.430;2023-08-20T05:29:44;11.33;;;6.30;;
37895;SDS011;23733;53.254;10.430;2023-08-20T05:32:11;9.47;;;5.93;;
37895;SDS011;23733;53.254;10.430;2023-08-20T05:34:38;10.33;;;5.57;;
37895;SDS011;23733;53.254;10.430;2023-08-20T05:37:04;10.10;;;5.87;;
37895;SDS011;23733;53.254;10.430;2023-08-20T05:39:35;13.33;;;5.30;;
37895;SDS011;23733;53.254;10.430;2023-08-20T05:42:02;9.33;;;5.40;;
37895;SDS011;23733;53.254;10.430;2023-08-20T05:44:29;8.97;;;5.53;;
37895;SDS011;23733;53.254;10.430;2023-08-20T05:46:55;10.33;;;5.37;;
37895;SDS011;23733;53.254;10.430;2023-08-20T05:49:21;9.03;;;5.37;;
37895;SDS011;23733;53.254;10.430;2023-08-20T05:51:48;11.67;;;5.60;;
37895;SDS011;23733;53.254;10.430;2023-08-20T05:54:14;11.07;;;5.17;;
37895;SDS011;23733;53.254;10.430;2023-08-20T05:56:40;14.47;;;6.23;;
37895;SDS011;23733;53.254;10.430;2023-08-20T05:59:07;9.67;;;5.80;;
37895;SDS011;23733;53.254;10.430;2023-08-20T06:01:33;10.13;;;5.50;;
37895;SDS011;23733;53.254;10.430;2023-08-20T06:03:59;11.67;;;5.47;;
37895;SDS011;23733;53.254;10.430;2023-08-20T06:06:27;9.23;;;5.00;;
37895;SDS011;23733;53.254;10.430;2023-08-20T06:08:53;8.10;;;4.50;;
37895;SDS011;23733;53.254;10.430;2023-08-20T06:11:19;9.53;;;5.10;;
37895;SDS011;23733;53.254;10.430;2023-08-20T06:13:45;10.80;;;5.50;;
37895;SDS011;23733;53.254;10.430;2023-08-20T06:16:12;6.83;;;4.30;;
37895;SDS011;23733;53.254;10.430;2023-08-20T06:18:38;9.50;;;4.93;;
37895;SDS011;23733;53.254;10.430;2023-08-20T06:21:04;9.47;;;4.90;;
37895;SDS011;23733;53.254;10.430;2023-08-20T06:23:30;11.70;;;5.10;;
37895;SDS011;23733;53.254;10.430;2023-08-20T06:25:56;7.97;;;4.47;;
37895;SDS011;23733;53.254;10.430;2023-08-20T06:28:22;7.40;;;4.47;;
37895;SDS011;23733;53.254;10.430;2023-08-20T06:30:49;9.30;;;4.63;;
37895;SDS011;23733;53.254;10.430;2023-08-20T06:33:15;10.33;;;4.73;;
37895;SDS011;23733;53.254;10.430;2023-08-20T06:35:41;8.20;;;4.13;;
37895;SDS011;23733;53.254;10.430;2023-08-20T06:38:08;8.17;;;4.23;;
37895;SDS011;23733;53.254;10.430;2023-08-20T06:40:34;8.47;;;4.40;;
37895;SDS011;23733;53.254;10.430;2023-08-20T06:43:00;8.63;;;4.20;;
37895;SDS011;23733;53.254;10.430;2023-08-20T06:45:27;10.87;;;4.57;;
37895;SDS011;23733;53.254;10.430;2023-08-20T06:47:53;8.37;;;3.97;;
37895;SDS011;23733;53.254;10.430;2023-08-20T06:50:19;8.33;;;3.63;;
37895;SDS011;23733;53.254;10.430;2023-08-20T06:52:45;9.00;;;4.33;;
37895;SDS011;23733;53.254;10.430;2023-08-20T06:55:11;7.27;;;3.93;;
37895;SDS011;23733;53.254;10.430;2023-08-20T06:57:37;9.40;;;3.97;;
37895;SDS011;23733;53.254;10.430;2023-08-20T07:00:03;7.07;;;3.97;;
37895;SDS011;23733;53.254;10.430;2023-08-20T07:02:30;7.93;;;3.83;;
37895;SDS011;23733;53.254;10.430;2023-08-20T07:04:56;7.40;;;3.90;;
37895;SDS011;23733;53.254;10.430;2023-08-20T07:07:23;8.43;;;3.43;;
37895;SDS011;23733;53.254;10.430;2023-08-20T07:09:49;6.80;;;3.60;;
37895;SDS011;23733;53.254;10.430;2023-08-20T07:12:15;6.57;;;3.03;;
37895;SDS011;23733;53.254;10.430;2023-08-20T07:14:42;10.83;;;3.33;;
37895;SDS011;23733;53.254;10.430;2023-08-20T07:17:08;5.13;;;2.87;;
37895;SDS011;23733;53.254;10.430;2023-08-20T07:19:36;6.13;;;2.67;;
37895;SDS011;23733;53.254;10.430;2023-08-20T07:22:03;5.67;;;2.50;;
37895;SDS011;23733;53.254;10.430;2023-08-20T07:24:29;6.13;;;2.60;;
37895;SDS011;23733;53.254;10.430;2023-08-20T07:27:00;5.43;;;2.47;;
37895;SDS011;23733;53.254;10.430;2023-08-20T07:29:27;5.30;;;2.20;;
37895;SDS011;23733;53.254;10.430;2023-08-20T07:31:55;6.77;;;2.67;;
37895;SDS011;23733;53.254;10.430;2023-08-20T07:34:22;6.90;;;2.40;;
37895;SDS011;23733;53.254;10.430;2023-08-20T07:36:48;7.20;;;2.27;;
37895;SDS011;23733;53.254;10.430;2023-08-20T07:39:15;6.17;;;2.50;;
37895;SDS011;23733;53.254;10.430;2023-08-20T07:41:41;8.17;;;2.10;;
37895;SDS011;23733;53.254;10.430;2023-08-20T07:44:08;6.63;;;2.30;;
37895;SDS011;23733;53.254;10.430;2023-08-20T07:46:34;5.17;;;2.20;;
37895;SDS011;23733;53.254;10.430;2023-08-20T07:49:00;5.87;;;2.70;;
37895;SDS011;23733;53.254;10.430;2023-08-20T07:51:30;7.77;;;2.70;;
37895;SDS011;23733;53.254;10.430;2023-08-20T07:53:56;4.00;;;1.97;;
37895;SDS011;23733;53.254;10.430;2023-08-20T07:56:26;6.73;;;2.00;;
37895;SDS011;23733;53.254;10.430;2023-08-20T07:58:52;5.53;;;2.10;;
37895;SDS011;23733;53.254;10.430;2023-08-20T08:01:18;6.37;;;2.30;;
37895;SDS011;23733;53.254;10.430;2023-08-20T08:03:45;7.80;;;2.40;;
37895;SDS011;23733;53.254;10.430;2023-08-20T08:06:11;7.60;;;2.53;;
37895;SDS011;23733;53.254;10.430;2023-08-20T08:08:37;5.47;;;2.70;;
37895;SDS011;23733;53.254;10.430;2023-08-20T08:11:04;2.93;;;1.80;;
37895;SDS011;23733;53.254;10.430;2023-08-20T08:13:30;6.80;;;2.60;;
37895;SDS011;23733;53.254;10.430;2023-08-20T08:15:56;5.37;;;2.13;;
37895;SDS011;23733;53.254;10.430;2023-08-20T08:18:23;7.03;;;2.10;;
37895;SDS011;23733;53.254;10.430;2023-08-20T08:20:49;7.77;;;2.30;;
37895;SDS011;23733;53.254;10.430;2023-08-20T08:23:15;5.30;;;2.00;;
37895;SDS011;23733;53.254;10.430;2023-08-20T08:25:42;4.17;;;2.00;;
37895;SDS011;23733;53.254;10.430;2023-08-20T08:28:08;3.03;;;1.47;;
37895;SDS011;23733;53.254;10.430;2023-08-20T08:30:36;4.10;;;1.80;;
37895;SDS011;23733;53.254;10.430;2023-08-20T08:33:03;4.33;;;1.70;;
37895;SDS011;23733;53.254;10.430;2023-08-20T08:35:29;4.80;;;1.63;;
37895;SDS011;23733;53.254;10.430;2023-08-20T08:37:55;5.23;;;1.80;;
37895;SDS011;23733;53.254;10.430;2023-08-20T08:40:23;4.53;;;1.90;;
37895;SDS011;23733;53.254;10.430;2023-08-20T08:42:54;4.43;;;2.00;;
37895;SDS011;23733;53.254;10.430;2023-08-20T08:45:20;4.87;;;1.97;;
37895;SDS011;23733;53.254;10.430;2023-08-20T08:47:46;6.50;;;2.00;;
37895;SDS011;23733;53.254;10.430;2023-08-20T08:50:13;4.87;;;1.90;;
37895;SDS011;23733;53.254;10.430;2023-08-20T08:52:39;4.33;;;1.90;;
37895;SDS011;23733;53.254;10.430;2023-08-20T08:55:07;3.53;;;1.87;;
37895;SDS011;23733;53.254;10.430;2023-08-20T08:57:37;2.97;;;1.70;;
37895;SDS011;23733;53.254;10.430;2023-08-20T09:00:03;3.43;;;1.90;;
37895;SDS011;23733;53.254;10.430;2023-08-20T09:02:30;9.67;;;1.97;;
37895;SDS011;23733;53.254;10.430;2023-08-20T09:04:56;4.33;;;2.13;;
37895;SDS011;23733;53.254;10.430;2023-08-20T09:07:22;5.17;;;2.00;;
37895;SDS011;23733;53.254;10.430;2023-08-20T09:09:48;8.30;;;1.93;;
37895;SDS011;23733;53.254;10.430;2023-08-20T09:12:15;4.40;;;1.63;;
37895;SDS011;23733;53.254;10.430;2023-08-20T09:14:46;4.07;;;1.70;;
37895;SDS011;23733;53.254;10.430;2023-08-20T09:17:14;3.10;;;1.50;;
37895;SDS011;23733;53.254;10.430;2023-08-20T09:19:40;4.07;;;1.80;;
37895;SDS011;23733;53.254;10.430;2023-08-20T09:22:08;5.67;;;1.90;;
37895;SDS011;23733;53.254;10.430;2023-08-20T09:24:41;4.23;;;1.70;;
37895;SDS011;23733;53.254;10.430;2023-08-20T09:27:11;6.80;;;1.90;;
37895;SDS011;23733;53.254;10.430;2023-08-20T09:32:14;3.47;;;1.50;;
37895;SDS011;23733;53.254;10.430;2023-08-20T09:34:45;6.90;;;2.33;;
37895;SDS011;23733;53.254;10.430;2023-08-20T09:37:15;3.83;;;1.60;;
37895;SDS011;23733;53.254;10.430;2023-08-20T09:39:42;3.47;;;1.48;;
37895;SDS011;23733;53.254;10.430;2023-08-20T09:42:09;5.53;;;1.83;;
37895;SDS011;23733;53.254;10.430;2023-08-20T09:44:37;6.53;;;1.83;;
37895;SDS011;23733;53.254;10.430;2023-08-20T09:47:09;3.23;;;1.73;;
37895;SDS011;23733;53.254;10.430;2023-08-20T09:49:40;4.60;;;1.92;;
37895;SDS011;23733;53.254;10.430;2023-08-20T09:52:10;9.93;;;2.53;;
37895;SDS011;23733;53.254;10.430;2023-08-20T09:57:14;3.57;;;1.60;;
37895;SDS011;23733;53.254;10.430;2023-08-20T10:00:06;4.28;;;1.75;;
37895;SDS011;23733;53.254;10.430;2023-08-20T10:02:37;2.42;;;1.48;;
37895;SDS011;23733;53.254;10.430;2023-08-20T10:05:07;3.67;;;1.55;;
37895;SDS011;23733;53.254;10.430;2023-08-20T10:07:37;4.65;;;1.85;;
37895;SDS011;23733;53.254;10.430;2023-08-20T10:10:04;5.97;;;2.00;;
37895;SDS011;23733;53.254;10.430;2023-08-20T10:12:34;5.28;;;1.80;;
37895;SDS011;23733;53.254;10.430;2023-08-20T10:15:01;4.30;;;1.88;;
37895;SDS011;23733;53.254;10.430;2023-08-20T10:17:29;3.70;;;1.77;;
37895;SDS011;23733;53.254;10.430;2023-08-20T10:19:57;4.40;;;1.77;;
37895;SDS011;23733;53.254;10.430;2023-08-20T10:22:35;5.18;;;1.75;;
37895;SDS011;23733;53.254;10.430;2023-08-20T10:25:12;4.90;;;1.80;;
37895;SDS011;23733;53.254;10.430;2023-08-20T10:27:49;5.10;;;1.75;;
37895;SDS011;23733;53.254;10.430;2023-08-20T10:30:19;3.65;;;1.77;;
37895;SDS011;23733;53.254;10.430;2023-08-20T10:32:48;3.40;;;1.70;;
37895;SDS011;23733;53.254;10.430;2023-08-20T10:35:15;4.60;;;2.00;;
37895;SDS011;23733;53.254;10.430;2023-08-20T10:46:04;4.57;;;1.80;;
37895;SDS011;23733;53.254;10.430;2023-08-20T10:48:35;4.60;;;1.70;;
37895;SDS011;23733;53.254;10.430;2023-08-20T10:51:11;4.90;;;1.83;;
37895;SDS011;23733;53.254;10.430;2023-08-20T10:53:38;4.05;;;1.70;;
37895;SDS011;23733;53.254;10.430;2023-08-20T10:56:22;4.88;;;2.10;;
37895;SDS011;23733;53.254;10.430;2023-08-20T10:58:51;4.88;;;1.95;;
37895;SDS011;23733;53.254;10.430;2023-08-20T11:01:19;6.75;;;1.60;;
37895;SDS011;23733;53.254;10.430;2023-08-20T11:03:46;4.65;;;1.85;;
37895;SDS011;23733;53.254;10.430;2023-08-20T11:06:14;4.70;;;1.80;;
37895;SDS011;23733;53.254;10.430;2023-08-20T11:08:41;3.38;;;1.50;;
37895;SDS011;23733;53.254;10.430;2023-08-20T11:11:08;4.95;;;1.70;;
37895;SDS011;23733;53.254;10.430;2023-08-20T11:13:34;6.00;;;1.88;;
37895;SDS011;23733;53.254;10.430;2023-08-20T11:16:02;6.53;;;2.08;;
37895;SDS011;23733;53.254;10.430;2023-08-20T11:18:28;6.30;;;1.80;;
37895;SDS011;23733;53.254;10.430;2023-08-20T11:20:55;5.22;;;1.80;;
37895;SDS011;23733;53.254;10.430;2023-08-20T11:23:23;3.95;;;1.70;;
37895;SDS011;23733;53.254;10.430;2023-08-20T11:25:50;5.63;;;1.60;;
37895;SDS011;23733;53.254;10.430;2023-08-20T11:28:16;4.95;;;1.88;;
37895;SDS011;23733;53.254;10.430;2023-08-20T11:30:43;4.50;;;1.70;;
37895;SDS011;23733;53.254;10.430;2023-08-20T11:33:09;3.65;;;2.03;;
37895;SDS011;23733;53.254;10.430;2023-08-20T11:35:35;5.07;;;1.75;;
37895;SDS011;23733;53.254;10.430;2023-08-20T11:38:05;4.85;;;1.95;;
37895;SDS011;23733;53.254;10.430;2023-08-20T11:40:31;5.30;;;1.75;;
37895;SDS011;23733;53.254;10.430;2023-08-20T11:42:58;4.80;;;1.92;;
37895;SDS011;23733;53.254;10.430;2023-08-20T11:45:24;4.25;;;1.77;;
37895;SDS011;23733;53.254;10.430;2023-08-20T11:47:55;5.32;;;1.90;;
37895;SDS011;23733;53.254;10.430;2023-08-20T11:50:22;4.03;;;1.50;;
37895;SDS011;23733;53.254;10.430;2023-08-20T11:52:48;3.72;;;1.58;;
37895;SDS011;23733;53.254;10.430;2023-08-20T11:55:14;4.45;;;1.70;;
37895;SDS011;23733;53.254;10.430;2023-08-20T11:57:49;3.53;;;1.60;;
37895;SDS011;23733;53.254;10.430;2023-08-20T12:00:24;4.60;;;1.80;;
37895;SDS011;23733;53.254;10.430;2023-08-20T12:02:54;5.70;;;2.00;;
37895;SDS011;23733;53.254;10.430;2023-08-20T12:05:21;6.60;;;1.90;;
37895;SDS011;23733;53.254;10.430;2023-08-20T12:07:55;4.03;;;1.60;;
37895;SDS011;23733;53.254;10.430;2023-08-20T12:10:22;4.90;;;1.63;;
37895;SDS011;23733;53.254;10.430;2023-08-20T12:12:48;6.40;;;1.83;;
37895;SDS011;23733;53.254;10.430;2023-08-20T12:15:15;5.97;;;1.98;;
37895;SDS011;23733;53.254;10.430;2023-08-20T12:17:41;5.28;;;2.10;;
37895;SDS011;23733;53.254;10.430;2023-08-20T12:20:07;4.18;;;1.90;;
37895;SDS011;23733;53.254;10.430;2023-08-20T12:22:38;5.18;;;1.85;;
37895;SDS011;23733;53.254;10.430;2023-08-20T12:25:05;3.08;;;1.63;;
37895;SDS011;23733;53.254;10.430;2023-08-20T12:27:32;6.93;;;2.05;;
37895;SDS011;23733;53.254;10.430;2023-08-20T12:29:58;3.88;;;1.80;;
37895;SDS011;23733;53.254;10.430;2023-08-20T12:32:24;4.20;;;1.67;;
37895;SDS011;23733;53.254;10.430;2023-08-20T12:34:51;8.05;;;2.00;;
37895;SDS011;23733;53.254;10.430;2023-08-20T12:37:17;5.47;;;1.80;;
37895;SDS011;23733;53.254;10.430;2023-08-20T12:39:43;5.82;;;1.40;;
37895;SDS011;23733;53.254;10.430;2023-08-20T12:42:10;3.10;;;1.50;;
37895;SDS011;23733;53.254;10.430;2023-08-20T12:44:36;4.60;;;1.70;;
37895;SDS011;23733;53.254;10.430;2023-08-20T12:47:02;6.90;;;1.70;;
37895;SDS011;23733;53.254;10.430;2023-08-20T12:49:29;3.80;;;1.98;;
37895;SDS011;23733;53.254;10.430;2023-08-20T12:51:55;3.38;;;1.63;;
37895;SDS011;23733;53.254;10.430;2023-08-20T12:54:21;8.15;;;1.70;;
37895;SDS011;23733;53.254;10.430;2023-08-20T12:56:48;2.83;;;1.70;;
37895;SDS011;23733;53.254;10.430;2023-08-20T12:59:14;5.15;;;2.05;;
37895;SDS011;23733;53.254;10.430;2023-08-20T13:01:40;4.43;;;1.50;;
37895;SDS011;23733;53.254;10.430;2023-08-20T13:04:07;4.25;;;1.73;;
37895;SDS011;23733;53.254;10.430;2023-08-20T13:06:52;6.65;;;2.10;;
37895;SDS011;23733;53.254;10.430;2023-08-20T13:09:19;6.32;;;2.20;;
37895;SDS011;23733;53.254;10.430;2023-08-20T13:11:45;6.18;;;2.03;;
37895;SDS011;23733;53.254;10.430;2023-08-20T13:14:13;4.07;;;1.70;;
37895;SDS011;23733;53.254;10.430;2023-08-20T13:16:39;8.40;;;2.15;;
37895;SDS011;23733;53.254;10.430;2023-08-20T13:19:06;4.53;;;1.60;;
37895;SDS011;23733;53.254;10.430;2023-08-20T13:21:32;4.85;;;1.77;;
37895;SDS011;23733;53.254;10.430;2023-08-20T13:23:58;2.90;;;1.60;;
37895;SDS011;23733;53.254;10.430;2023-08-20T13:26:25;3.28;;;1.55;;
37895;SDS011;23733;53.254;10.430;2023-08-20T13:28:51;5.60;;;1.55;;
37895;SDS011;23733;53.254;10.430;2023-08-20T13:31:17;2.85;;;1.45;;
37895;SDS011;23733;53.254;10.430;2023-08-20T13:33:44;3.35;;;1.52;;
37895;SDS011;23733;53.254;10.430;2023-08-20T13:36:10;2.95;;;1.52;;
37895;SDS011;23733;53.254;10.430;2023-08-20T13:38:36;4.80;;;1.83;;
37895;SDS011;23733;53.254;10.430;2023-08-20T13:41:03;4.63;;;1.65;;
37895;SDS011;23733;53.254;10.430;2023-08-20T13:43:29;4.15;;;1.48;;
37895;SDS011;23733;53.254;10.430;2023-08-20T13:45:55;4.00;;;1.70;;
37895;SDS011;23733;53.254;10.430;2023-08-20T13:48:22;3.22;;;1.70;;
37895;SDS011;23733;53.254;10.430;2023-08-20T13:50:48;2.80;;;1.45;;
37895;SDS011;23733;53.254;10.430;2023-08-20T13:53:14;3.20;;;1.40;;
37895;SDS011;23733;53.254;10.430;2023-08-20T13:55:40;2.83;;;1.40;;
37895;SDS011;23733;53.254;10.430;2023-08-20T13:58:07;3.63;;;1.40;;
37895;SDS011;23733;53.254;10.430;2023-08-20T14:00:33;2.72;;;1.33;;
37895;SDS011;23733;53.254;10.430;2023-08-20T14:02:59;2.63;;;1.27;;
37895;SDS011;23733;53.254;10.430;2023-08-20T14:05:26;2.97;;;1.50;;
37895;SDS011;23733;53.254;10.430;2023-08-20T14:07:54;3.85;;;1.58;;
37895;SDS011;23733;53.254;10.430;2023-08-20T14:10:20;4.60;;;1.75;;
37895;SDS011;23733;53.254;10.430;2023-08-20T14:12:47;3.45;;;1.60;;
37895;SDS011;23733;53.254;10.430;2023-08-20T14:15:13;3.58;;;1.77;;
37895;SDS011;23733;53.254;10.430;2023-08-20T14:17:40;4.90;;;1.40;;
37895;SDS011;23733;53.254;10.430;2023-08-20T14:20:06;3.17;;;1.80;;
37895;SDS011;23733;53.254;10.430;2023-08-20T14:22:33;5.65;;;1.85;;
37895;SDS011;23733;53.254;10.430;2023-08-20T14:25:00;4.72;;;1.73;;
37895;SDS011;23733;53.254;10.430;2023-08-20T14:27:26;3.33;;;1.65;;
37895;SDS011;23733;53.254;10.430;2023-08-20T14:29:52;5.80;;;1.58;;
37895;SDS011;23733;53.254;10.430;2023-08-20T14:32:18;2.75;;;1.30;;
37895;SDS011;23733;53.254;10.430;2023-08-20T14:34:45;2.90;;;1.83;;
37895;SDS011;23733;53.254;10.430;2023-08-20T14:37:11;5.28;;;1.50;;
37895;SDS011;23733;53.254;10.430;2023-08-20T14:39:38;2.55;;;1.30;;
37895;SDS011;23733;53.254;10.430;2023-08-20T14:42:05;3.45;;;1.55;;
37895;SDS011;23733;53.254;10.430;2023-08-20T14:44:31;3.40;;;1.58;;
37895;SDS011;23733;53.254;10.430;2023-08-20T14:46:57;3.88;;;1.67;;
37895;SDS011;23733;53.254;10.430;2023-08-20T14:49:24;3.05;;;1.73;;
37895;SDS011;23733;53.254;10.430;2023-08-20T14:51:50;3.60;;;1.60;;
37895;SDS011;23733;53.254;10.430;2023-08-20T14:54:16;3.55;;;1.40;;